createdAt,value
2017-06-04T00:02:00.985Z,5.53
2017-06-04T00:04:28.708Z,5.47
2017-06-04T00:06:56.690Z,6.25
2017-06-04T00:09:24.416Z,5.07
2017-06-04T00:11:52.144Z,5.62
2017-06-04T00:14:19.896Z,5.80
2017-06-04T00:16:47.618Z,5.90
2017-06-04T00:19:15.381Z,5.60
2017-06-04T00:21:43.108Z,5.35
2017-06-04T00:24:11.595Z,6.20
2017-06-04T00:26:39.380Z,5.72
2017-06-04T00:29:07.108Z,6.60
2017-06-04T00:31:34.876Z,5.97
2017-06-04T00:34:02.606Z,6.40
2017-06-04T00:36:30.340Z,6.15
2017-06-04T00:38:58.103Z,6.45
2017-06-04T00:41:25.825Z,6.18
2017-06-04T00:43:53.616Z,5.82
2017-06-04T00:46:21.345Z,6.62
2017-06-04T00:48:49.069Z,7.28
2017-06-04T00:51:16.830Z,7.72
2017-06-04T00:53:44.562Z,7.30
2017-06-04T00:56:12.332Z,7.37
2017-06-04T00:58:40.065Z,6.87
2017-06-04T01:01:07.821Z,7.22
2017-06-04T01:03:35.580Z,8.70
2017-06-04T01:06:03.315Z,9.45
2017-06-04T01:08:32.012Z,9.07
2017-06-04T01:10:59.740Z,8.30
2017-06-04T01:13:27.482Z,10.40
2017-06-04T01:15:55.235Z,8.05
2017-06-04T01:18:22.984Z,9.70
2017-06-04T01:20:50.762Z,9.32
2017-06-04T01:23:18.495Z,9.68
2017-06-04T01:25:46.231Z,8.15
2017-06-04T01:28:14.756Z,10.13
2017-06-04T01:30:42.496Z,15.00
2017-06-04T01:33:10.276Z,10.25
2017-06-04T01:35:38.010Z,10.88
2017-06-04T01:38:05.740Z,9.68
2017-06-04T01:40:34.267Z,11.30
2017-06-04T01:43:02.000Z,11.10
2017-06-04T01:45:29.768Z,11.00
2017-06-04T01:47:57.499Z,11.20
2017-06-04T01:50:26.033Z,10.15
2017-06-04T01:52:53.792Z,11.12
2017-06-04T01:55:21.526Z,10.98
2017-06-04T01:57:49.303Z,11.48
2017-06-04T02:00:17.045Z,10.32
2017-06-04T02:02:44.775Z,10.95
2017-06-04T02:05:12.552Z,11.55
2017-06-04T02:07:41.052Z,10.85
2017-06-04T02:10:08.846Z,12.02
2017-06-04T02:12:36.585Z,13.00
2017-06-04T02:15:04.327Z,12.68
2017-06-04T02:17:32.089Z,11.88
2017-06-04T02:19:59.820Z,12.00
2017-06-04T02:22:27.597Z,12.05
2017-06-04T02:24:56.109Z,13.32
2017-06-04T02:27:23.841Z,12.60
2017-06-04T02:29:51.640Z,14.07
2017-06-04T02:32:19.371Z,14.13
2017-06-04T02:34:47.905Z,13.65
2017-06-04T02:37:15.659Z,13.20
2017-06-04T02:39:43.391Z,13.82
2017-06-04T02:42:11.151Z,12.57
2017-06-04T02:44:38.905Z,13.45
2017-06-04T02:47:06.683Z,14.95
2017-06-04T02:49:34.411Z,13.13
2017-06-04T02:52:02.909Z,13.40
2017-06-04T02:54:30.673Z,12.50
2017-06-04T02:56:58.405Z,14.13
2017-06-04T02:59:26.940Z,12.85
2017-06-04T03:01:54.683Z,12.52
2017-06-04T03:04:22.416Z,14.43
2017-06-04T03:06:50.954Z,14.15
2017-06-04T03:09:18.684Z,12.15
2017-06-04T03:11:46.464Z,12.85
2017-06-04T03:14:14.199Z,12.88
2017-06-04T03:16:41.933Z,13.40
2017-06-04T03:19:10.461Z,13.73
2017-06-04T03:21:38.192Z,13.90
2017-06-04T03:24:05.959Z,13.88
2017-06-04T03:26:33.696Z,15.27
2017-06-04T03:29:02.192Z,13.55
2017-06-04T03:31:29.964Z,13.93
2017-06-04T03:33:57.697Z,13.07
2017-06-04T03:36:26.427Z,11.88
2017-06-04T03:38:54.159Z,13.07
2017-06-04T03:41:21.905Z,14.05
2017-06-04T03:43:49.676Z,12.20
2017-06-04T03:46:17.419Z,13.10
2017-06-04T03:48:45.955Z,12.65
2017-06-04T03:51:13.689Z,12.45
2017-06-04T03:53:41.420Z,11.85
2017-06-04T03:56:09.951Z,12.73
2017-06-04T03:58:37.683Z,11.15
2017-06-04T04:01:05.455Z,12.00
2017-06-04T04:03:33.187Z,14.07
2017-06-04T04:06:01.695Z,11.05
2017-06-04T04:08:29.456Z,12.50
2017-06-04T04:10:57.205Z,12.35
2017-06-04T04:13:24.972Z,13.57
2017-06-04T04:15:52.707Z,12.55
2017-06-04T04:18:21.217Z,13.45
2017-06-04T04:20:48.980Z,13.55
2017-06-04T04:23:16.713Z,13.55
2017-06-04T04:25:45.249Z,13.18
2017-06-04T04:28:12.979Z,13.05
2017-06-04T04:30:40.709Z,12.77
2017-06-04T04:33:09.240Z,13.35
2017-06-04T04:35:36.973Z,12.23
2017-06-04T04:38:04.759Z,12.18
2017-06-04T04:40:32.503Z,13.75
2017-06-04T04:43:00.240Z,13.02
2017-06-04T04:45:28.772Z,14.02
2017-06-04T04:47:56.503Z,13.48
2017-06-04T04:50:24.335Z,12.88
2017-06-04T04:52:52.847Z,12.48
2017-06-04T04:55:20.582Z,12.48
2017-06-04T04:57:49.108Z,12.63
2017-06-04T05:00:16.869Z,13.65
2017-06-04T05:02:44.645Z,13.70
2017-06-04T05:05:12.379Z,13.73
2017-06-04T05:07:40.113Z,12.85
2017-06-04T05:10:07.873Z,13.98
2017-06-04T05:12:35.604Z,12.95
2017-06-04T05:15:03.376Z,12.57
2017-06-04T05:17:31.901Z,12.40
2017-06-04T05:19:59.631Z,13.30
2017-06-04T05:22:27.397Z,13.30
2017-06-04T05:24:55.139Z,13.80
2017-06-04T05:27:29.321Z,12.55
2017-06-04T05:29:57.051Z,13.30
2017-06-04T05:32:24.783Z,14.00
2017-06-04T05:34:52.548Z,13.27
2017-06-04T05:37:20.284Z,12.00
2017-06-04T05:39:48.316Z,12.48
2017-06-04T05:42:16.044Z,11.80
2017-06-04T05:44:43.771Z,12.55
2017-06-04T05:47:11.532Z,12.10
2017-06-04T05:49:39.259Z,12.10
2017-06-04T05:52:07.026Z,10.90
2017-06-04T05:54:34.765Z,12.60
2017-06-04T05:57:02.500Z,12.13
2017-06-04T05:59:30.267Z,11.20
2017-06-04T06:01:57.998Z,11.27
2017-06-04T06:04:25.767Z,12.82
2017-06-04T06:06:54.268Z,10.98
2017-06-04T06:09:22.003Z,12.55
2017-06-04T06:11:50.541Z,11.35
2017-06-04T06:14:18.278Z,11.68
2017-06-04T06:16:46.047Z,11.50
2017-06-04T06:19:13.776Z,13.23
2017-06-04T06:21:42.277Z,12.30
2017-06-04T06:24:10.040Z,11.12
2017-06-04T06:26:37.787Z,11.93
2017-06-04T06:29:05.561Z,11.20
2017-06-04T06:31:33.300Z,13.50
2017-06-04T06:34:01.798Z,11.75
2017-06-04T06:36:29.571Z,11.77
2017-06-04T06:38:57.305Z,11.30
2017-06-04T06:41:25.079Z,12.35
2017-06-04T06:43:52.813Z,10.50
2017-06-04T06:46:21.308Z,12.35
2017-06-04T06:48:49.073Z,10.55
2017-06-04T06:51:16.809Z,11.23
2017-06-04T06:53:44.580Z,11.35
2017-06-04T06:56:13.077Z,10.90
2017-06-04T06:58:40.807Z,10.82
2017-06-04T07:01:08.567Z,10.50
2017-06-04T07:03:36.296Z,10.98
2017-06-04T07:06:04.069Z,10.98
2017-06-04T07:08:31.814Z,12.02
2017-06-04T07:10:59.556Z,11.25
2017-06-04T07:13:27.320Z,10.88
2017-06-04T07:15:55.059Z,11.05
2017-06-04T07:18:22.828Z,11.20
2017-06-04T07:20:50.567Z,10.70
2017-06-04T07:23:19.069Z,11.20
2017-06-04T07:25:46.835Z,11.20
2017-06-04T07:28:14.568Z,12.23
2017-06-04T07:30:43.108Z,10.90
2017-06-04T07:33:10.836Z,10.82
2017-06-04T07:35:38.572Z,11.23
2017-06-04T07:38:07.162Z,11.18
2017-06-04T07:40:34.924Z,10.52
2017-06-04T07:43:02.697Z,9.90
2017-06-04T07:45:30.448Z,9.80
2017-06-04T07:47:58.248Z,10.15
2017-06-04T07:50:26.036Z,12.00
2017-06-04T07:52:53.767Z,9.77
2017-06-04T07:55:21.539Z,10.73
2017-06-04T07:57:49.263Z,9.40
2017-06-04T08:00:16.992Z,9.40
2017-06-04T08:02:45.519Z,10.55
2017-06-04T08:05:13.247Z,9.63
2017-06-04T08:07:41.784Z,9.05
2017-06-04T08:10:09.531Z,9.38
2017-06-04T08:12:37.264Z,9.15
2017-06-04T08:15:05.020Z,8.98
2017-06-04T08:17:32.755Z,10.25
2017-06-04T08:20:01.302Z,9.70
2017-06-04T08:22:29.028Z,8.55
2017-06-04T08:24:56.752Z,9.30
2017-06-04T08:27:25.295Z,11.27
2017-06-04T08:29:53.020Z,9.00
2017-06-04T08:32:20.810Z,10.07
2017-06-04T08:34:48.541Z,9.35
2017-06-04T08:37:16.275Z,10.50
2017-06-04T08:39:44.062Z,8.45
2017-06-04T08:42:11.789Z,8.13
2017-06-04T08:44:39.560Z,8.65
2017-06-04T08:47:07.300Z,7.60
2017-06-04T08:49:35.031Z,7.80
2017-06-04T08:52:02.799Z,8.23
2017-06-04T08:54:30.524Z,8.98
2017-06-04T08:56:59.061Z,7.70
2017-06-04T08:59:26.792Z,8.40
2017-06-04T09:01:54.528Z,8.10
2017-06-04T09:04:22.287Z,8.25
2017-06-04T09:06:50.026Z,8.35
2017-06-04T09:09:17.798Z,8.88
2017-06-04T09:11:46.308Z,8.65
2017-06-04T09:14:14.296Z,8.02
2017-06-04T09:16:42.059Z,8.18
2017-06-04T09:19:09.797Z,9.57
2017-06-04T09:21:37.567Z,8.52
2017-06-04T09:24:05.300Z,8.55
2017-06-04T09:26:33.045Z,8.25
2017-06-04T09:29:01.568Z,6.93
2017-06-04T09:31:29.313Z,8.20
2017-06-04T09:33:57.084Z,7.70
2017-06-04T09:36:24.817Z,8.13
2017-06-04T09:38:52.580Z,7.40
2017-06-04T09:41:20.353Z,8.35
2017-06-04T09:43:48.087Z,8.40
2017-06-04T09:46:16.628Z,7.90
2017-06-04T09:48:44.473Z,7.47
2017-06-04T09:51:12.227Z,7.22
2017-06-04T09:53:40.000Z,7.45
2017-06-04T09:56:07.733Z,7.72
2017-06-04T09:58:35.527Z,8.43
2017-06-04T10:01:03.259Z,7.75
2017-06-04T10:03:31.690Z,8.32
2017-06-04T10:05:59.456Z,8.75
2017-06-04T10:08:27.200Z,9.55
2017-06-04T10:10:54.972Z,9.38
2017-06-04T10:13:22.770Z,8.82
2017-06-04T10:15:51.326Z,8.52
2017-06-04T10:18:19.089Z,9.45
2017-06-04T10:20:46.823Z,9.13
2017-06-04T10:23:14.638Z,8.00
2017-06-04T10:25:43.156Z,7.35
2017-06-04T10:28:10.887Z,7.00
2017-06-04T10:30:38.653Z,7.78
2017-06-04T10:33:06.477Z,7.95
2017-06-04T10:35:34.263Z,7.28
2017-06-04T10:38:02.804Z,6.53
2017-06-04T10:40:30.529Z,6.62
2017-06-04T10:42:58.290Z,6.65
2017-06-04T10:45:26.029Z,6.12
2017-06-04T10:47:54.553Z,6.45
2017-06-04T10:50:22.289Z,6.50
2017-06-04T10:52:50.015Z,7.37
2017-06-04T10:55:18.550Z,6.30
2017-06-04T10:57:46.280Z,7.05
2017-06-04T11:00:14.053Z,7.32
2017-06-04T11:02:41.800Z,8.55
2017-06-04T11:05:09.520Z,6.90
2017-06-04T11:07:37.279Z,7.28
2017-06-04T11:10:05.005Z,7.45
2017-06-04T11:12:32.782Z,8.73
2017-06-04T11:15:00.521Z,8.00
2017-06-04T11:17:28.248Z,8.55
2017-06-04T11:19:56.776Z,8.30
2017-06-04T11:22:24.505Z,7.15
2017-06-04T11:24:52.267Z,7.60
2017-06-04T11:27:19.991Z,7.70
2017-06-04T11:29:47.731Z,7.72
2017-06-04T11:32:15.495Z,8.10
2017-06-04T11:34:43.248Z,8.00
2017-06-04T11:37:11.307Z,8.00
2017-06-04T11:39:39.049Z,9.23
2017-06-04T11:42:06.780Z,9.18
2017-06-04T11:44:35.308Z,9.40
2017-06-04T11:47:03.043Z,9.57
2017-06-04T11:49:30.817Z,8.88
2017-06-04T11:51:58.552Z,9.00
2017-06-04T11:54:26.276Z,8.60
2017-06-04T11:56:54.032Z,9.13
2017-06-04T11:59:21.776Z,10.05
2017-06-04T12:01:49.556Z,8.65
2017-06-04T12:04:17.295Z,8.55
2017-06-04T12:06:45.027Z,8.55
2017-06-04T12:09:12.796Z,9.05
2017-06-04T12:11:40.529Z,8.70
2017-06-04T12:14:09.079Z,8.65
2017-06-04T12:16:36.853Z,8.00
2017-06-04T12:19:04.580Z,9.68
2017-06-04T12:21:32.336Z,8.75
2017-06-04T12:24:00.064Z,8.65
2017-06-04T12:26:27.840Z,9.48
2017-06-04T12:28:55.953Z,8.55
2017-06-04T12:31:23.687Z,8.13
2017-06-04T12:33:51.498Z,7.70
2017-06-04T12:36:20.063Z,9.70
2017-06-04T12:38:47.906Z,8.13
2017-06-04T12:41:15.677Z,8.38
2017-06-04T12:43:43.433Z,8.98
2017-06-04T12:46:11.407Z,8.23
2017-06-04T12:48:39.136Z,7.18
2017-06-04T12:51:06.912Z,7.30
2017-06-04T12:53:34.654Z,8.40
2017-06-04T12:56:02.385Z,9.60
2017-06-04T12:58:30.928Z,8.80
2017-06-04T13:00:58.675Z,7.50
2017-06-04T13:03:26.468Z,7.15
2017-06-04T13:05:54.201Z,7.62
2017-06-04T13:08:21.940Z,7.85
2017-06-04T13:10:49.705Z,7.95
2017-06-04T13:13:17.445Z,7.37
2017-06-04T13:15:45.267Z,6.90
2017-06-04T13:18:12.997Z,6.12
2017-06-04T13:20:40.725Z,6.22
2017-06-04T13:23:08.490Z,5.78
2017-06-04T13:25:36.224Z,4.65
2017-06-04T13:28:04.756Z,5.22
2017-06-04T13:30:32.483Z,5.18
2017-06-04T13:33:00.216Z,5.40
2017-06-04T13:35:27.976Z,4.05
2017-06-04T13:37:55.705Z,4.47
2017-06-04T13:40:23.486Z,5.15
2017-06-04T13:42:51.232Z,5.70
2017-06-04T13:45:18.955Z,5.35
2017-06-04T13:47:46.732Z,5.43
2017-06-04T13:50:14.466Z,5.70
2017-06-04T13:52:43.002Z,5.37
2017-06-04T13:55:10.740Z,6.07
2017-06-04T13:57:38.475Z,5.05
2017-06-04T14:00:06.232Z,5.07
2017-06-04T14:02:33.985Z,4.82
2017-06-04T14:05:02.521Z,4.57
2017-06-04T14:07:30.256Z,4.75
2017-06-04T14:09:57.980Z,4.70
2017-06-04T14:12:26.512Z,6.07
2017-06-04T14:14:54.239Z,5.82
2017-06-04T14:17:22.008Z,6.20
2017-06-04T14:19:49.742Z,5.32
2017-06-04T14:22:18.253Z,5.60
2017-06-04T14:24:46.011Z,5.97
2017-06-04T14:27:13.735Z,7.10
2017-06-04T14:29:41.512Z,4.57
2017-06-04T14:32:10.007Z,4.10
2017-06-04T14:34:37.741Z,4.03
2017-06-04T14:37:06.270Z,4.00
2017-06-04T14:39:34.003Z,3.15
2017-06-04T14:42:01.773Z,2.60
2017-06-04T14:44:29.504Z,2.78
2017-06-04T15:03:24.131Z,2.97
2017-06-04T15:05:51.961Z,2.90
2017-06-04T15:08:19.785Z,3.05
2017-06-04T15:10:48.289Z,4.07
2017-06-04T15:13:16.042Z,3.33
2017-06-04T15:15:44.164Z,3.10
2017-06-04T15:18:12.331Z,3.58
2017-06-04T15:20:40.127Z,3.78
2017-06-04T15:23:08.634Z,4.60
2017-06-04T15:25:36.364Z,4.30
2017-06-04T15:28:04.124Z,5.00
2017-06-04T15:30:31.868Z,5.00
2017-06-04T15:32:59.640Z,5.15
2017-06-04T15:35:28.141Z,5.12
2017-06-04T15:37:55.875Z,6.03
2017-06-04T15:40:23.649Z,5.72
2017-06-04T15:42:52.156Z,4.87
2017-06-04T15:45:19.949Z,5.10
2017-06-04T15:47:47.693Z,9.65
2017-06-04T15:50:15.429Z,5.10
2017-06-04T15:52:43.198Z,4.50
2017-06-04T15:55:10.932Z,4.80
2017-06-04T15:57:39.471Z,5.20
2017-06-04T16:00:07.208Z,5.10
2017-06-04T16:02:34.949Z,5.20
2017-06-04T16:05:03.839Z,4.57
2017-06-04T16:07:32.412Z,4.82
2017-06-04T16:10:00.191Z,4.55
2017-06-04T16:12:27.933Z,6.65
2017-06-04T16:14:56.442Z,6.22
2017-06-04T16:17:24.205Z,5.72
2017-06-04T16:19:51.932Z,5.85
2017-06-04T16:22:22.789Z,5.55
2017-06-04T16:24:50.541Z,6.12
2017-06-04T16:27:18.269Z,5.35
2017-06-04T16:29:46.034Z,5.80
2017-06-04T16:32:14.549Z,5.70
2017-06-04T16:34:42.637Z,5.85
2017-06-04T16:37:10.370Z,5.78
2017-06-04T16:39:38.179Z,5.80
2017-06-04T16:42:05.946Z,6.37
2017-06-04T16:44:33.673Z,5.95
2017-06-04T16:47:01.454Z,5.50
2017-06-04T16:49:29.189Z,5.18
2017-06-04T16:51:56.915Z,5.80
2017-06-04T16:54:25.452Z,6.78
2017-06-04T16:56:53.181Z,5.57
2017-06-04T16:59:20.972Z,6.78
2017-06-04T17:01:48.700Z,7.28
2017-06-04T17:04:16.444Z,6.62
2017-06-04T17:06:44.989Z,5.72
2017-06-04T17:09:12.721Z,6.05
2017-06-04T17:11:40.512Z,4.85
2017-06-04T17:14:08.248Z,5.62
2017-06-04T17:16:35.994Z,4.90
2017-06-04T17:19:03.759Z,5.68
2017-06-04T17:21:31.537Z,5.97
2017-06-04T17:23:59.305Z,5.40
2017-06-04T17:26:27.251Z,5.47
2017-06-04T17:28:55.876Z,5.20
2017-06-04T17:31:23.649Z,5.40
2017-06-04T17:33:52.203Z,5.28
2017-06-04T17:36:19.993Z,5.47
2017-06-04T17:38:47.764Z,4.97
2017-06-04T17:41:16.302Z,4.60
2017-06-04T17:43:44.093Z,4.25
2017-06-04T17:46:13.239Z,4.93
2017-06-04T17:48:41.053Z,4.47
2017-06-04T17:51:09.662Z,4.60
2017-06-04T17:53:37.459Z,3.75
2017-06-04T17:56:05.261Z,3.85
2017-06-04T17:58:33.761Z,3.15
2017-06-04T18:01:01.610Z,5.75
2017-06-04T18:03:30.261Z,5.30
2017-06-04T18:05:58.026Z,5.90
2017-06-04T18:08:25.793Z,6.47
2017-06-04T18:10:53.599Z,6.80
2017-06-04T18:13:21.549Z,6.68
2017-06-04T18:15:49.423Z,6.47
2017-06-04T18:18:17.217Z,5.97
2017-06-04T18:20:45.034Z,5.47
2017-06-04T18:23:18.194Z,5.47
2017-06-04T18:25:46.034Z,7.25
2017-06-04T18:28:13.782Z,7.20
2017-06-04T18:30:41.520Z,8.32
2017-06-04T18:33:09.441Z,5.80
2017-06-04T18:35:37.176Z,6.72
2017-06-04T18:38:04.945Z,7.40
2017-06-04T18:40:32.682Z,6.28
2017-06-04T18:43:00.415Z,7.18
2017-06-04T18:45:28.941Z,8.23
2017-06-04T18:47:56.681Z,7.15
2017-06-04T18:50:24.501Z,6.87
2017-06-04T18:52:52.247Z,6.30
2017-06-04T18:55:19.984Z,5.65
2017-06-04T18:57:47.759Z,5.72
2017-06-04T19:00:16.241Z,6.22
2017-06-04T19:02:44.017Z,6.62
2017-06-04T19:05:15.128Z,7.00
2017-06-04T19:07:43.929Z,7.43
2017-06-04T19:10:13.595Z,7.30
2017-06-04T19:12:41.330Z,7.93
2017-06-04T19:15:09.864Z,8.75
2017-06-04T19:17:39.553Z,11.40
2017-06-04T19:20:07.344Z,12.02
2017-06-04T19:22:35.108Z,11.98
2017-06-04T19:25:02.852Z,13.98
2017-06-04T19:27:32.380Z,12.57
2017-06-04T19:30:00.447Z,11.85
2017-06-04T19:32:28.246Z,11.07
2017-06-04T19:34:55.988Z,10.07
2017-06-04T19:37:24.505Z,11.27
2017-06-04T19:39:52.277Z,10.85
2017-06-04T19:42:20.034Z,10.23
2017-06-04T19:44:47.817Z,11.02
2017-06-04T19:47:15.624Z,10.82
2017-06-04T19:49:43.382Z,12.00
2017-06-04T19:52:11.911Z,12.48
2017-06-04T19:54:39.659Z,14.27
2017-06-04T19:57:07.442Z,13.68
2017-06-04T19:59:35.181Z,15.85
2017-06-04T20:02:02.917Z,15.00
2017-06-04T20:04:30.692Z,14.52
2017-06-04T20:06:58.497Z,15.45
2017-06-04T20:09:26.285Z,16.10
2017-06-04T20:11:54.784Z,17.45
2017-06-04T20:14:22.540Z,16.35
2017-06-04T20:16:50.397Z,15.30
2017-06-04T20:19:18.908Z,15.52
2017-06-04T20:21:46.710Z,14.85
2017-06-04T20:24:14.449Z,13.82
2017-06-04T20:26:42.192Z,15.70
2017-06-04T20:29:09.965Z,17.40
2017-06-04T20:31:37.704Z,15.30
2017-06-04T20:34:05.487Z,14.60
2017-06-04T20:36:33.364Z,15.30
2017-06-04T20:39:01.124Z,17.62
2017-06-04T20:41:28.893Z,19.67
2017-06-04T20:43:56.638Z,19.62
2017-06-04T20:46:24.416Z,18.05
2017-06-04T20:48:52.153Z,18.45
2017-06-04T20:51:19.909Z,17.70
2017-06-04T20:53:47.685Z,16.35
2017-06-04T20:56:15.436Z,16.27
2017-06-04T20:58:43.218Z,14.82
2017-06-04T21:01:10.960Z,14.25
2017-06-04T21:03:38.825Z,14.07
2017-06-04T21:06:08.034Z,12.57
2017-06-04T21:08:35.872Z,12.25
2017-06-04T21:11:03.676Z,12.95
2017-06-04T21:13:33.798Z,13.13
2017-06-04T21:16:01.565Z,15.00
2017-06-04T21:18:30.113Z,16.15
2017-06-04T21:20:57.879Z,15.93
2017-06-04T21:23:25.693Z,17.50
2017-06-04T21:25:53.432Z,15.07
2017-06-04T21:28:21.942Z,15.82
2017-06-04T21:30:49.712Z,15.77
2017-06-04T21:33:17.459Z,14.23
2017-06-04T21:35:45.376Z,15.88
2017-06-04T21:38:13.129Z,15.23
2017-06-04T21:40:41.061Z,16.77
2017-06-04T21:43:09.097Z,17.58
2017-06-04T21:45:37.695Z,15.80
2017-06-04T21:48:05.662Z,17.00
2017-06-04T21:50:33.418Z,17.80
2017-06-04T21:53:01.159Z,16.77
2017-06-04T21:55:29.693Z,16.65
2017-06-04T21:57:58.040Z,16.15
2017-06-04T22:00:25.907Z,18.10
2017-06-04T22:02:53.681Z,16.45
2017-06-04T22:05:21.442Z,19.05
2017-06-04T22:07:49.214Z,17.58
2017-06-04T22:10:16.961Z,17.30
2017-06-04T22:12:44.779Z,19.00
2017-06-04T22:15:12.541Z,16.60
2017-06-04T22:17:40.290Z,17.12
2017-06-04T22:20:08.073Z,16.80
2017-06-04T22:22:35.813Z,18.58
2017-06-04T22:25:03.610Z,20.60
2017-06-04T22:27:31.357Z,17.77
2017-06-04T22:29:59.878Z,18.50
2017-06-04T22:32:27.665Z,18.75
2017-06-04T22:34:55.483Z,19.23
2017-06-04T22:37:24.232Z,18.95
2017-06-04T22:39:51.973Z,18.98
2017-06-04T22:42:19.716Z,18.45
2017-06-04T22:44:47.480Z,19.55
2017-06-04T22:47:15.235Z,21.17
2017-06-04T22:49:43.020Z,19.37
2017-06-04T22:52:10.761Z,20.77
2017-06-04T22:54:38.509Z,20.23
2017-06-04T22:57:06.279Z,19.90
2017-06-04T22:59:34.017Z,19.92
2017-06-04T23:02:01.792Z,21.52
2017-06-04T23:04:29.529Z,20.12
2017-06-04T23:06:57.267Z,21.05
2017-06-04T23:09:25.049Z,21.35
2017-06-04T23:11:53.582Z,19.48
2017-06-04T23:14:21.366Z,21.45
2017-06-04T23:16:49.113Z,21.90
2017-06-04T23:19:16.854Z,21.70
2017-06-04T23:21:44.637Z,20.98
2017-06-04T23:24:12.373Z,19.10
2017-06-04T23:26:40.158Z,22.90
2017-06-04T23:29:07.893Z,21.62
2017-06-04T23:31:35.628Z,22.70
2017-06-04T23:34:03.393Z,22.00
2017-06-04T23:36:31.133Z,23.48
2017-06-04T23:38:59.721Z,21.65
2017-06-04T23:41:28.232Z,22.13
2017-06-04T23:43:55.963Z,22.90
2017-06-04T23:46:23.728Z,21.65
2017-06-04T23:48:51.467Z,22.17
2017-06-04T23:51:20.013Z,21.25
2017-06-04T23:53:47.752Z,21.12
2017-06-04T23:56:15.496Z,20.08
2017-06-04T23:58:43.260Z,21.10
